Time;durP1;ratioP1;P1;durP2;ratioP2;P2;SDS_P1;SDS_P2;PMS_P1;PMS_P2;Temp;Humidity;BMP_temperature;BMP_pressure;BME280_temperature;BME280_humidity;BME280_pressure;Samples;Min_cycle;Max_cycle;Signal;HPM_P1;HPM_P2
2023/08/03 00:00:24;;;;;;;5.35;0.63;;;20.20;99.90;;;;;;5000137;28;20029;-69
2023/08/03 00:02:51;;;;;;;1.85;0.68;;;20.20;99.90;;;;;;4984795;28;20046;-69
2023/08/03 00:05:19;;;;;;;1.35;0.50;;;20.20;99.90;;;;;;4983263;28;20026;-69
2023/08/03 00:07:47;;;;;;;4.78;0.50;;;20.20;99.90;;;;;;4992756;28;20036;-69
2023/08/03 00:10:14;;;;;;;6.13;0.80;;;20.10;99.90;;;;;;5000826;28;20539;-69
2023/08/03 00:12:40;;;;;;;1.70;0.30;;;20.10;99.90;;;;;;4981892;28;20029;-69
2023/08/03 00:15:07;;;;;;;1.90;0.38;;;20.10;99.90;;;;;;5001953;28;20140;-69
2023/08/03 00:17:32;;;;;;;3.55;0.80;;;20.10;99.90;;;;;;4989604;28;20041;-69
2023/08/03 00:20:00;;;;;;;3.78;0.40;;;20.10;99.90;;;;;;4990913;28;20541;-68
2023/08/03 00:22:26;;;;;;;1.50;0.77;;;20.10;99.90;;;;;;5001297;28;20091;-68
2023/08/03 00:24:52;;;;;;;5.80;0.52;;;20.10;99.90;;;;;;4987435;28;20482;-69
2023/08/03 00:27:18;;;;;;;0.80;0.30;;;20.10;99.90;;;;;;5001118;28;20112;-68
2023/08/03 00:29:43;;;;;;;4.50;0.82;;;20.10;99.90;;;;;;4984784;28;20034;-68
2023/08/03 00:32:09;;;;;;;2.10;0.63;;;20.10;99.90;;;;;;4999855;28;20027;-69
2023/08/03 00:34:35;;;;;;;3.35;0.32;;;20.10;99.90;;;;;;4999475;28;20058;-69
2023/08/03 00:37:01;;;;;;;1.52;0.50;;;20.10;99.90;;;;;;4999832;28;20022;-69
2023/08/03 00:39:27;;;;;;;8.07;1.00;;;20.10;99.90;;;;;;5001593;28;20018;-69
2023/08/03 00:41:53;;;;;;;1.60;0.57;;;20.10;99.90;;;;;;4989116;28;20030;-69
2023/08/03 00:44:19;;;;;;;1.65;0.40;;;20.00;99.90;;;;;;4984194;28;20109;-69
2023/08/03 00:46:45;;;;;;;6.90;0.73;;;20.00;99.90;;;;;;4999432;28;20034;-69
2023/08/03 00:49:11;;;;;;;4.13;0.90;;;20.10;99.90;;;;;;4984746;28;20034;-69
2023/08/03 00:51:37;;;;;;;5.30;0.88;;;19.90;99.90;;;;;;4984955;28;20030;-70
2023/08/03 00:54:07;;;;;;;4.10;0.90;;;19.90;99.90;;;;;;4985282;28;20052;-70
2023/08/03 00:56:34;;;;;;;4.45;1.67;;;19.90;99.90;;;;;;4985863;28;20018;-70
2023/08/03 00:59:02;;;;;;;2.47;1.13;;;19.90;99.90;;;;;;4985476;28;20449;-70
2023/08/03 01:01:28;;;;;;;6.20;1.38;;;19.90;99.90;;;;;;4987945;28;20030;-70
2023/08/03 01:03:54;;;;;;;7.35;0.68;;;19.90;99.90;;;;;;5002459;28;20030;-70
2023/08/03 01:06:22;;;;;;;5.93;1.45;;;19.90;99.90;;;;;;4986495;28;20026;-70
2023/08/03 01:08:48;;;;;;;4.82;1.00;;;19.80;99.90;;;;;;4995465;28;20045;-70
2023/08/03 01:11:13;;;;;;;0.93;0.65;;;19.90;99.90;;;;;;5007234;28;20025;-70
2023/08/03 01:13:39;;;;;;;3.90;0.47;;;19.80;99.90;;;;;;4993126;28;20037;-70
2023/08/03 01:16:09;;;;;;;3.20;0.28;;;19.80;99.90;;;;;;4985437;28;20390;-70
2023/08/03 01:18:37;;;;;;;4.35;1.23;;;19.90;99.90;;;;;;4988068;28;20084;-69
2023/08/03 01:21:06;;;;;;;1.95;1.08;;;19.80;99.90;;;;;;4988400;28;20105;-69
2023/08/03 01:23:33;;;;;;;1.23;0.55;;;19.80;99.90;;;;;;4985817;28;20445;-66
2023/08/03 01:25:58;;;;;;;5.25;0.70;;;19.80;99.90;;;;;;4984691;28;20027;-67
2023/08/03 01:28:24;;;;;;;3.33;0.75;;;19.80;99.90;;;;;;5004751;28;20041;-67
2023/08/03 01:30:50;;;;;;;3.30;0.82;;;19.90;99.90;;;;;;5005719;28;20410;-67
2023/08/03 01:33:15;;;;;;;3.58;0.63;;;19.80;99.90;;;;;;5003375;28;20409;-67
2023/08/03 01:35:42;;;;;;;2.85;0.63;;;19.80;99.90;;;;;;4993762;28;20102;-67
2023/08/03 01:38:08;;;;;;;2.10;0.30;;;19.80;99.90;;;;;;5002408;28;20026;-67
2023/08/03 01:40:33;;;;;;;0.75;0.22;;;19.70;99.90;;;;;;5003030;28;20022;-67
2023/08/03 01:42:59;;;;;;;1.60;0.90;;;19.80;99.90;;;;;;5002580;28;20405;-65
2023/08/03 01:45:25;;;;;;;0.70;0.30;;;19.70;99.90;;;;;;4994345;28;20045;-67
2023/08/03 01:47:52;;;;;;;5.40;1.10;;;19.70;99.90;;;;;;5001799;28;20584;-67
2023/08/03 01:50:19;;;;;;;2.30;0.60;;;19.60;99.90;;;;;;5003682;28;20034;-67
2023/08/03 01:52:48;;;;;;;4.57;1.10;;;19.60;99.90;;;;;;4984169;28;20030;-67
2023/08/03 01:55:14;;;;;;;0.73;0.30;;;19.60;99.90;;;;;;5004106;28;20049;-66
2023/08/03 01:57:40;;;;;;;2.08;0.30;;;19.60;99.90;;;;;;5003381;28;20501;-67
2023/08/03 02:00:07;;;;;;;4.68;0.77;;;19.60;99.90;;;;;;5002477;28;20025;-67
2023/08/03 02:02:33;;;;;;;7.20;0.95;;;19.60;99.90;;;;;;5010003;28;20030;-67
2023/08/03 02:04:58;;;;;;;2.28;0.50;;;19.40;99.90;;;;;;4991663;28;20623;-67
2023/08/03 02:07:45;;;;;;;5.57;1.13;;;19.40;99.90;;;;;;5001640;28;20025;-67
2023/08/03 02:10:13;;;;;;;0.85;0.20;;;19.30;99.90;;;;;;5004166;28;20034;-67
2023/08/03 02:12:39;;;;;;;1.67;0.40;;;19.30;99.90;;;;;;5001984;28;20121;-67
2023/08/03 02:15:06;;;;;;;0.43;0.22;;;19.30;99.90;;;;;;4986929;28;20105;-67
2023/08/03 02:17:32;;;;;;;3.35;0.60;;;19.30;99.90;;;;;;4987045;28;20023;-67
2023/08/03 02:19:59;;;;;;;1.13;0.55;;;19.30;99.90;;;;;;5003442;28;20026;-67
2023/08/03 02:22:25;;;;;;;3.58;0.22;;;19.30;99.90;;;;;;4992457;28;20061;-67
2023/08/03 02:24:51;;;;;;;3.00;0.52;;;19.30;99.90;;;;;;5002081;28;20062;-67
2023/08/03 02:27:17;;;;;;;3.00;0.40;;;19.40;99.90;;;;;;5003204;28;20041;-66
2023/08/03 02:29:42;;;;;;;9.52;1.27;;;19.40;99.90;;;;;;5003280;28;20030;-67
2023/08/03 02:32:08;;;;;;;1.80;0.43;;;19.40;99.90;;;;;;4992440;28;20040;-66
2023/08/03 02:34:34;;;;;;;2.60;0.60;;;19.40;99.90;;;;;;5011014;28;20026;-67
2023/08/03 02:36:59;;;;;;;1.20;0.22;;;19.40;99.90;;;;;;5005560;28;20030;-66
2023/08/03 02:39:25;;;;;;;1.88;0.35;;;19.40;99.90;;;;;;5003535;28;20049;-66
2023/08/03 02:41:52;;;;;;;0.40;0.30;;;19.30;99.90;;;;;;5001388;28;20379;-66
2023/08/03 02:44:18;;;;;;;0.30;0.17;;;19.30;99.90;;;;;;4984578;28;20163;-66
2023/08/03 02:46:44;;;;;;;0.10;0.03;;;19.30;99.90;;;;;;4992391;28;20109;-67
2023/08/03 02:49:10;;;;;;;1.75;0.40;;;19.30;99.90;;;;;;5001136;28;20503;-67
2023/08/03 02:51:36;;;;;;;1.58;0.40;;;19.20;99.90;;;;;;5003031;28;20041;-67
2023/08/03 02:54:01;;;;;;;0.85;0.20;;;19.30;99.90;;;;;;4984270;28;20030;-67
2023/08/03 02:56:27;;;;;;;4.63;0.60;;;19.10;99.90;;;;;;5001434;28;20489;-67
2023/08/03 02:58:54;;;;;;;4.00;0.40;;;19.00;99.90;;;;;;5001774;28;20038;-67
2023/08/03 03:01:19;;;;;;;4.40;0.55;;;19.00;99.90;;;;;;5002158;28;20156;-67
2023/08/03 03:03:45;;;;;;;2.10;0.35;;;19.00;99.90;;;;;;5001813;28;20098;-67
2023/08/03 03:06:11;;;;;;;0.45;0.20;;;19.00;99.90;;;;;;5008098;28;20021;-67
2023/08/03 03:08:37;;;;;;;5.25;0.38;;;18.80;99.90;;;;;;5002241;28;20084;-67
2023/08/03 03:11:02;;;;;;;0.45;0.30;;;18.70;99.90;;;;;;5002282;28;20053;-67
2023/08/03 03:13:28;;;;;;;3.60;0.57;;;18.70;99.90;;;;;;5000121;28;20030;-67
2023/08/03 03:15:54;;;;;;;0.32;0.20;;;18.70;99.90;;;;;;5002864;28;20026;-67
2023/08/03 03:18:19;;;;;;;1.25;0.28;;;18.70;99.90;;;;;;5000178;28;20033;-66
2023/08/03 03:20:45;;;;;;;0.45;0.20;;;18.70;99.90;;;;;;5001469;28;20030;-67
2023/08/03 03:23:11;;;;;;;3.40;0.82;;;18.60;99.90;;;;;;4999802;28;20052;-67
2023/08/03 03:25:36;;;;;;;1.67;0.17;;;18.50;99.90;;;;;;5002318;28;20470;-67
2023/08/03 03:28:04;;;;;;;1.02;0.30;;;18.60;99.90;;;;;;5001964;28;20030;-67
2023/08/03 03:30:33;;;;;;;3.40;0.28;;;18.40;99.90;;;;;;5000038;28;20033;-67
2023/08/03 03:32:59;;;;;;;1.33;0.20;;;18.40;99.90;;;;;;4999954;28;20093;-67
2023/08/03 03:35:25;;;;;;;0.55;0.20;;;18.40;99.90;;;;;;5000952;28;20390;-67
2023/08/03 03:37:51;;;;;;;6.93;1.00;;;18.40;99.90;;;;;;4990054;28;20040;-68
2023/08/03 03:40:16;;;;;;;1.13;0.20;;;18.30;99.90;;;;;;5009233;28;20113;-67
2023/08/03 03:42:42;;;;;;;0.63;0.20;;;18.30;99.90;;;;;;4989229;28;20034;-67
2023/08/03 03:45:08;;;;;;;3.13;0.43;;;18.40;99.90;;;;;;5000335;28;20030;-67
2023/08/03 03:47:34;;;;;;;1.55;0.25;;;18.50;99.90;;;;;;4992562;28;20124;-67
2023/08/03 03:50:00;;;;;;;1.10;0.63;;;18.50;99.90;;;;;;4988778;28;20586;-67
2023/08/03 03:52:26;;;;;;;1.30;0.25;;;18.60;99.90;;;;;;5000221;28;20501;-67
2023/08/03 03:54:52;;;;;;;0.98;0.38;;;18.60;99.90;;;;;;4984167;28;20069;-67
2023/08/03 03:57:17;;;;;;;0.77;0.20;;;18.70;99.90;;;;;;4972198;28;20038;-67
2023/08/03 03:59:43;;;;;;;0.75;0.10;;;18.70;99.90;;;;;;4997263;28;20500;-67
2023/08/03 04:02:09;;;;;;;0.30;0.17;;;18.70;99.90;;;;;;5002477;28;20025;-67
2023/08/03 04:04:35;;;;;;;0.20;0.10;;;18.80;99.90;;;;;;5001078;28;20509;-67
2023/08/03 04:07:00;;;;;;;1.50;0.35;;;18.80;99.90;;;;;;5000600;28;20038;-67
2023/08/03 04:09:26;;;;;;;2.45;0.77;;;18.80;99.90;;;;;;5001290;28;20033;-68
2023/08/03 04:11:52;;;;;;;1.65;0.47;;;18.80;99.90;;;;;;5000974;28;20434;-68
2023/08/03 04:14:18;;;;;;;0.10;0.10;;;18.80;99.90;;;;;;4997482;28;20061;-68
2023/08/03 04:16:43;;;;;;;0.52;0.20;;;18.80;99.90;;;;;;4996601;28;20893;-69
2023/08/03 04:19:09;;;;;;;0.00;0.00;;;18.70;99.90;;;;;;4987022;28;20030;-68
2023/08/03 04:21:35;;;;;;;2.75;0.38;;;18.70;99.90;;;;;;4999435;28;20398;-69
2023/08/03 04:24:00;;;;;;;0.88;0.35;;;18.70;99.90;;;;;;5000430;28;20390;-68
2023/08/03 04:26:26;;;;;;;5.88;0.98;;;18.60;99.90;;;;;;5000718;28;20034;-68
2023/08/03 04:28:52;;;;;;;3.20;0.38;;;18.50;99.90;;;;;;5041545;23;20486;-70
2023/08/03 04:31:18;;;;;;;1.63;0.35;;;18.50;99.90;;;;;;5043871;28;20037;-70
2023/08/03 04:33:43;;;;;;;1.08;0.40;;;18.40;99.90;;;;;;5049506;28;20110;-70
2023/08/03 04:36:09;;;;;;;2.80;0.63;;;18.30;99.90;;;;;;5031910;28;20033;-70
2023/08/03 04:38:35;;;;;;;1.55;0.50;;;18.20;99.90;;;;;;5007750;28;20033;-71
2023/08/03 04:41:01;;;;;;;0.30;0.20;;;18.30;99.90;;;;;;5012524;28;20033;-69
2023/08/03 04:43:29;;;;;;;1.40;0.30;;;18.30;99.90;;;;;;5029648;28;20254;-70
2023/08/03 04:45:55;;;;;;;0.95;0.35;;;18.20;99.90;;;;;;5029891;28;20447;-71
2023/08/03 04:48:21;;;;;;;0.25;0.05;;;18.10;99.90;;;;;;5030362;28;20104;-69
2023/08/03 04:50:47;;;;;;;0.20;0.10;;;18.10;99.90;;;;;;5011827;28;20127;-70
2023/08/03 04:53:13;;;;;;;1.20;0.20;;;18.10;99.90;;;;;;5013074;28;20034;-70
2023/08/03 04:55:38;;;;;;;1.95;0.20;;;18.10;99.90;;;;;;4992738;28;20037;-70
2023/08/03 04:58:04;;;;;;;2.28;0.47;;;18.00;99.90;;;;;;5011228;28;20474;-71
2023/08/03 05:00:30;;;;;;;5.72;0.32;;;18.00;99.90;;;;;;5034157;28;20042;-70
2023/08/03 05:02:56;;;;;;;3.08;0.50;;;17.90;99.90;;;;;;5037925;28;20035;-71
2023/08/03 05:05:21;;;;;;;1.67;0.13;;;17.90;99.90;;;;;;5042030;28;20025;-71
2023/08/03 05:07:47;;;;;;;0.95;0.60;;;18.00;99.90;;;;;;5016543;28;20274;-71
2023/08/03 05:10:13;;;;;;;0.20;0.10;;;17.90;99.90;;;;;;5023074;28;20041;-70
2023/08/03 05:12:41;;;;;;;0.57;0.20;;;17.90;99.90;;;;;;5021671;28;20034;-67
2023/08/03 05:15:08;;;;;;;0.55;0.17;;;17.70;99.90;;;;;;5020209;28;20453;-68
2023/08/03 05:17:34;;;;;;;5.57;0.73;;;17.60;99.90;;;;;;5009061;28;20036;-68
2023/08/03 05:20:00;;;;;;;1.42;0.35;;;17.70;99.90;;;;;;5009123;28;20034;-69
2023/08/03 05:22:26;;;;;;;0.65;0.17;;;17.60;99.90;;;;;;5018683;28;20021;-68
2023/08/03 05:24:52;;;;;;;5.38;1.75;;;17.60;99.90;;;;;;5017488;28;20506;-69
2023/08/03 05:27:18;;;;;;;0.73;0.50;;;17.60;99.90;;;;;;4991090;28;20088;-66
2023/08/03 05:29:44;;;;;;;4.15;0.20;;;17.50;99.90;;;;;;5009709;28;20030;-68
2023/08/03 05:32:10;;;;;;;1.10;0.68;;;17.50;99.90;;;;;;5009526;28;20034;-68
2023/08/03 05:34:36;;;;;;;1.45;0.35;;;17.50;99.90;;;;;;4992094;28;20065;-68
2023/08/03 05:37:02;;;;;;;2.22;0.22;;;17.50;99.90;;;;;;5018962;28;20026;-67
2023/08/03 05:39:28;;;;;;;1.75;0.40;;;17.50;99.90;;;;;;5029840;28;20029;-68
2023/08/03 05:41:54;;;;;;;1.40;0.20;;;17.60;99.90;;;;;;5023602;28;20036;-68
2023/08/03 05:44:20;;;;;;;4.03;0.70;;;17.60;99.90;;;;;;5015703;28;20028;-68
2023/08/03 05:46:46;;;;;;;6.13;0.47;;;17.60;99.90;;;;;;5045869;28;20040;-68
2023/08/03 05:49:15;;;;;;;7.18;0.40;;;17.60;99.90;;;;;;5009014;28;20394;-68
2023/08/03 05:51:41;;;;;;;13.80;0.98;;;17.60;99.90;;;;;;5005792;28;20100;-69
2023/08/03 05:54:18;;;;;;;1.35;0.68;;;17.70;99.90;;;;;;5026263;28;20025;-69
2023/08/03 05:56:46;;;;;;;1.88;0.40;;;17.70;99.90;;;;;;5011438;28;20026;-68
2023/08/03 05:59:29;;;;;;;0.15;0.03;;;17.80;99.90;;;;;;4996322;28;20026;-67
2023/08/03 06:01:55;;;;;;;1.38;0.32;;;17.80;99.90;;;;;;5030724;28;20076;-67
2023/08/03 06:04:21;;;;;;;1.85;0.88;;;17.90;99.90;;;;;;5038534;28;20024;-67
2023/08/03 06:06:47;;;;;;;5.20;0.77;;;17.90;99.90;;;;;;5033863;28;20044;-67
2023/08/03 06:09:14;;;;;;;1.02;0.55;;;17.80;99.90;;;;;;5040716;28;20032;-67
2023/08/03 06:11:40;;;;;;;1.67;0.40;;;17.90;99.90;;;;;;5023194;28;20108;-67
2023/08/03 06:14:15;;;;;;;2.42;0.80;;;18.00;99.90;;;;;;5038045;28;20021;-67
2023/08/03 06:16:44;;;;;;;1.90;0.50;;;17.90;99.90;;;;;;5016297;28;20026;-67
2023/08/03 06:19:10;;;;;;;2.08;0.32;;;17.90;99.90;;;;;;5022745;28;20388;-67
2023/08/03 06:21:36;;;;;;;7.32;0.43;;;18.00;99.90;;;;;;5038029;28;20390;-67
2023/08/03 06:24:03;;;;;;;0.82;0.35;;;17.90;99.90;;;;;;5037976;28;20087;-68
2023/08/03 06:26:33;;;;;;;4.90;0.57;;;17.90;99.90;;;;;;5038943;28;20044;-68
2023/08/03 06:29:01;;;;;;;3.28;0.50;;;17.90;99.90;;;;;;5014873;28;20045;-67
2023/08/03 06:31:37;;;;;;;0.57;0.38;;;18.00;99.90;;;;;;5014675;28;20087;-67
2023/08/03 06:34:04;;;;;;;2.17;0.38;;;18.10;99.90;;;;;;5017854;28;20414;-67
2023/08/03 06:36:29;;;;;;;5.38;0.93;;;18.00;99.90;;;;;;5038575;28;20137;-67
2023/08/03 06:38:56;;;;;;;2.90;0.38;;;18.00;99.90;;;;;;5024960;28;20104;-67
2023/08/03 06:41:26;;;;;;;3.72;0.73;;;18.00;99.90;;;;;;5012333;28;20033;-69
2023/08/03 06:43:56;;;;;;;2.80;0.65;;;18.00;99.90;;;;;;5011532;28;20025;-68
2023/08/03 06:46:22;;;;;;;1.20;0.50;;;18.10;99.90;;;;;;4994898;28;20033;-68
2023/08/03 06:48:50;;;;;;;0.65;0.25;;;18.00;99.90;;;;;;4994698;28;20191;-68
2023/08/03 06:51:16;;;;;;;5.50;0.88;;;18.10;99.90;;;;;;4994090;28;20057;-67
2023/08/03 06:53:42;;;;;;;2.10;0.38;;;18.10;99.90;;;;;;4993853;28;20123;-68
2023/08/03 06:56:08;;;;;;;1.00;0.22;;;18.10;99.90;;;;;;5011989;28;20506;-68
2023/08/03 06:58:34;;;;;;;2.83;0.52;;;18.10;99.90;;;;;;4994289;28;20040;-68
2023/08/03 07:01:00;;;;;;;0.55;0.25;;;18.20;99.90;;;;;;4994539;28;20042;-68
2023/08/03 07:03:26;;;;;;;2.78;0.77;;;18.20;99.90;;;;;;5011235;28;20508;-67
2023/08/03 07:05:51;;;;;;;3.00;0.55;;;18.20;99.90;;;;;;5012014;28;20397;-68
2023/08/03 07:08:17;;;;;;;0.52;0.35;;;18.20;99.90;;;;;;5030835;28;20103;-68
2023/08/03 07:10:43;;;;;;;0.43;0.30;;;18.10;99.90;;;;;;5026759;28;20073;-68
2023/08/03 07:13:09;;;;;;;1.48;0.50;;;18.20;99.90;;;;;;5011040;28;20054;-68
2023/08/03 07:15:35;;;;;;;1.55;0.38;;;18.20;99.90;;;;;;5011868;28;20056;-68
2023/08/03 07:18:06;;;;;;;2.00;0.95;;;18.20;99.90;;;;;;4993826;28;20690;-68
2023/08/03 07:20:34;;;;;;;3.47;0.30;;;18.30;99.90;;;;;;5011777;28;20437;-68
2023/08/03 07:22:59;;;;;;;1.45;0.30;;;18.40;99.90;;;;;;4993183;28;20069;-68
2023/08/03 07:25:26;;;;;;;0.98;0.40;;;18.30;99.90;;;;;;4994180;28;20034;-68
2023/08/03 07:27:52;;;;;;;3.45;0.65;;;18.10;99.90;;;;;;5011297;28;20057;-68
2023/08/03 07:30:19;;;;;;;0.47;0.20;;;18.10;99.90;;;;;;5010427;28;20065;-68
2023/08/03 07:32:45;;;;;;;3.55;0.38;;;18.10;99.90;;;;;;5009427;28;20487;-68
2023/08/03 07:35:12;;;;;;;5.18;0.32;;;18.00;99.90;;;;;;5011095;28;20030;-69
2023/08/03 07:37:37;;;;;;;1.52;0.63;;;18.00;99.90;;;;;;5007766;28;20584;-68
2023/08/03 07:40:04;;;;;;;0.73;0.30;;;18.00;99.90;;;;;;5032739;28;20120;-68
2023/08/03 07:42:33;;;;;;;0.77;0.28;;;17.90;99.90;;;;;;5017900;28;20038;-69
2023/08/03 07:45:00;;;;;;;1.10;0.30;;;17.90;99.90;;;;;;5029944;28;20045;-68
2023/08/03 07:47:25;;;;;;;2.72;0.60;;;17.90;99.90;;;;;;5038698;28;20523;-68
2023/08/03 07:49:55;;;;;;;0.73;0.22;;;17.80;99.90;;;;;;5035644;28;20041;-68
2023/08/03 07:52:21;;;;;;;4.63;0.50;;;17.50;99.90;;;;;;5013051;28;20017;-68
2023/08/03 07:54:47;;;;;;;4.10;0.95;;;17.50;99.90;;;;;;5036077;28;20617;-69
2023/08/03 07:57:15;;;;;;;3.75;0.63;;;17.70;99.90;;;;;;5031021;28;20036;-69
2023/08/03 07:59:42;;;;;;;1.45;0.25;;;17.60;99.90;;;;;;5032352;28;20398;-68
2023/08/03 08:02:08;;;;;;;4.90;0.68;;;17.60;99.90;;;;;;5038701;28;20175;-69
2023/08/03 08:04:34;;;;;;;4.25;0.75;;;17.60;99.90;;;;;;5043303;28;20494;-69
2023/08/03 08:06:59;;;;;;;0.20;0.15;;;17.70;99.90;;;;;;5040941;28;20090;-68
2023/08/03 08:09:25;;;;;;;7.95;0.77;;;17.60;99.90;;;;;;5029897;28;20044;-68
2023/08/03 08:11:51;;;;;;;4.13;0.60;;;17.70;99.90;;;;;;5017927;28;20109;-68
2023/08/03 08:14:17;;;;;;;2.00;0.10;;;17.60;99.90;;;;;;5009470;28;20160;-69
2023/08/03 08:16:42;;;;;;;6.55;0.75;;;17.60;99.90;;;;;;5010885;28;20129;-69
2023/08/03 08:19:08;;;;;;;0.30;0.17;;;17.60;99.90;;;;;;5028162;28;20041;-69
2023/08/03 08:21:34;;;;;;;1.48;0.75;;;17.60;99.90;;;;;;5030272;28;20076;-69
2023/08/03 08:23:59;;;;;;;1.45;0.40;;;17.70;99.90;;;;;;5029210;28;20091;-69
2023/08/03 08:26:25;;;;;;;0.85;0.32;;;17.60;99.90;;;;;;5030430;28;20043;-69
2023/08/03 08:28:56;;;;;;;4.30;0.32;;;17.50;99.90;;;;;;5030417;28;20490;-68
2023/08/03 08:31:23;;;;;;;2.75;0.28;;;17.60;99.90;;;;;;5013076;28;20033;-68
2023/08/03 08:33:49;;;;;;;1.77;0.32;;;17.60;99.90;;;;;;5012058;28;20104;-68
2023/08/03 08:36:15;;;;;;;2.40;0.47;;;17.70;99.90;;;;;;5009895;28;20113;-68
2023/08/03 08:38:40;;;;;;;2.53;0.50;;;17.70;99.90;;;;;;5017041;28;20033;-69
2023/08/03 08:41:06;;;;;;;0.20;0.10;;;17.70;99.90;;;;;;5028220;28;20427;-69
2023/08/03 08:43:32;;;;;;;5.18;0.70;;;17.70;99.90;;;;;;5027605;28;20036;-70
2023/08/03 08:45:58;;;;;;;0.47;0.22;;;17.80;99.90;;;;;;5008849;28;20497;-69
2023/08/03 08:48:24;;;;;;;0.38;0.30;;;17.80;99.90;;;;;;5032714;28;20028;-70
2023/08/03 08:50:51;;;;;;;4.38;0.85;;;17.80;99.90;;;;;;5012500;28;20112;-70
2023/08/03 08:53:17;;;;;;;0.93;0.30;;;17.70;99.90;;;;;;5015303;28;20086;-70
2023/08/03 08:55:44;;;;;;;1.95;0.40;;;17.80;99.90;;;;;;5029208;28;20053;-69
2023/08/03 08:58:09;;;;;;;3.25;0.43;;;17.80;99.90;;;;;;5038352;28;20025;-69
2023/08/03 09:00:46;;;;;;;3.35;0.90;;;17.80;99.90;;;;;;5041649;28;20028;-70
2023/08/03 09:03:14;;;;;;;1.63;0.40;;;17.80;99.90;;;;;;5037698;28;20029;-70
2023/08/03 09:05:40;;;;;;;0.13;0.08;;;17.80;99.90;;;;;;5019107;28;20057;-70
2023/08/03 09:08:14;;;;;;;2.47;0.40;;;17.90;99.90;;;;;;5023686;28;20091;-70
2023/08/03 09:10:54;;;;;;;1.15;0.43;;;18.00;99.90;;;;;;5009249;28;20026;-70
2023/08/03 09:13:35;;;;;;;6.10;0.77;;;18.10;99.90;;;;;;5020427;28;20171;-70
2023/08/03 09:16:02;;;;;;;1.93;0.20;;;18.20;99.90;;;;;;5043615;28;20032;-67
2023/08/03 09:18:31;;;;;;;0.90;0.30;;;18.30;99.90;;;;;;5023918;28;20376;-68
2023/08/03 09:21:15;;;;;;;0.95;0.40;;;18.40;99.90;;;;;;5033450;28;20025;-68
2023/08/03 09:23:41;;;;;;;0.43;0.28;;;18.50;99.90;;;;;;5019638;28;20056;-68
2023/08/03 09:26:07;;;;;;;5.20;0.63;;;18.40;99.90;;;;;;5022194;28;20041;-68
2023/08/03 09:28:43;;;;;;;0.52;0.22;;;18.60;99.90;;;;;;5039235;28;20522;-68
2023/08/03 09:31:10;;;;;;;3.70;0.70;;;18.60;99.90;;;;;;5052476;28;20074;-68
2023/08/03 09:33:37;;;;;;;1.20;0.47;;;18.70;99.90;;;;;;5034741;28;20029;-65
2023/08/03 09:36:14;;;;;;;1.98;0.40;;;18.60;99.90;;;;;;5034623;28;20047;-67
2023/08/03 09:38:42;;;;;;;0.43;0.30;;;18.40;99.90;;;;;;5016271;28;20436;-67
2023/08/03 09:41:10;;;;;;;1.98;0.55;;;18.10;99.90;;;;;;5033670;28;20034;-67
2023/08/03 09:43:36;;;;;;;1.50;0.43;;;18.00;99.90;;;;;;5032623;28;20163;-67
2023/08/03 09:46:02;;;;;;;2.90;0.80;;;17.90;99.90;;;;;;5015803;28;20029;-67
2023/08/03 09:48:28;;;;;;;2.45;0.30;;;17.90;99.90;;;;;;5015635;28;20045;-67
2023/08/03 09:50:57;;;;;;;0.43;0.30;;;18.10;99.90;;;;;;5015589;28;20065;-66
2023/08/03 09:53:35;;;;;;;2.25;0.50;;;18.30;99.90;;;;;;4998128;28;20029;-68
2023/08/03 09:56:01;;;;;;;7.43;1.30;;;18.40;99.90;;;;;;5015951;28;20021;-67
2023/08/03 09:58:38;;;;;;;0.25;0.20;;;18.30;99.90;;;;;;5032931;28;20191;-67
2023/08/03 10:01:07;;;;;;;1.20;0.15;;;18.20;99.90;;;;;;5015891;28;20026;-67
2023/08/03 10:03:34;;;;;;;1.77;0.45;;;18.40;99.90;;;;;;4998127;28;20059;-67
2023/08/03 10:06:18;;;;;;;10.07;1.13;;;18.80;99.90;;;;;;5014934;28;20505;-67
2023/08/03 10:09:01;;;;;;;0.95;0.30;;;19.10;99.90;;;;;;5014881;28;20503;-67
2023/08/03 10:11:31;;;;;;;0.82;0.22;;;18.90;99.90;;;;;;5011475;28;20030;-67
2023/08/03 10:14:03;;;;;;;2.72;0.30;;;18.90;99.90;;;;;;4994780;28;20022;-66
2023/08/03 10:16:33;;;;;;;0.88;0.40;;;18.90;99.90;;;;;;4995690;28;20049;-66
2023/08/03 10:19:01;;;;;;;2.43;0.83;;;19.00;99.90;;;;;;5013664;28;20033;-67
2023/08/03 10:21:28;;;;;;;0.20;0.10;;;19.20;99.90;;;;;;5027930;28;20037;-66
2023/08/03 10:24:15;;;;;;;2.92;0.25;;;18.90;99.90;;;;;;5026922;28;20111;-66
2023/08/03 10:26:42;;;;;;;0.43;0.22;;;18.90;99.90;;;;;;5026795;28;20030;-66
2023/08/03 10:29:09;;;;;;;1.70;0.55;;;19.00;99.90;;;;;;5042900;23;20136;-64
2023/08/03 10:31:55;;;;;;;0.08;0.08;;;19.10;99.90;;;;;;5029240;28;20112;-64
2023/08/03 10:34:29;;;;;;;1.10;0.17;;;18.90;99.90;;;;;;5033600;28;20366;-64
2023/08/03 10:36:58;;;;;;;1.90;0.17;;;19.00;99.90;;;;;;5030906;28;20110;-64
2023/08/03 10:39:47;;;;;;;0.47;0.10;;;19.20;99.90;;;;;;5014454;28;20518;-64
2023/08/03 10:42:28;;;;;;;0.60;0.28;;;19.10;99.90;;;;;;5032019;28;20086;-65
2023/08/03 10:45:14;;;;;;;1.08;0.10;;;19.10;99.90;;;;;;5031840;28;20052;-65
2023/08/03 10:47:40;;;;;;;1.10;0.17;;;19.20;99.90;;;;;;5031837;28;20056;-64
2023/08/03 10:50:06;;;;;;;1.75;0.35;;;19.20;99.90;;;;;;5014208;28;20473;-65
2023/08/03 10:52:32;;;;;;;2.88;0.50;;;19.40;99.90;;;;;;5031348;28;20029;-64
2023/08/03 10:55:19;;;;;;;0.82;0.17;;;19.70;99.90;;;;;;5032106;28;20026;-65
2023/08/03 10:57:45;;;;;;;0.60;0.22;;;19.80;99.90;;;;;;5017017;28;20076;-65
2023/08/03 11:00:12;;;;;;;0.40;0.20;;;19.90;99.90;;;;;;5013868;28;20442;-65
2023/08/03 11:02:42;;;;;;;0.55;0.20;;;20.20;99.90;;;;;;5031150;28;20033;-65
2023/08/03 11:05:11;;;;;;;0.00;0.00;;;20.20;99.90;;;;;;5031609;28;20040;-64
2023/08/03 11:07:45;;;;;;;0.40;0.20;;;19.90;99.90;;;;;;5010617;28;20038;-64
2023/08/03 11:10:15;;;;;;;0.35;0.17;;;19.90;99.90;;;;;;4994786;28;20375;-64
2023/08/03 11:12:44;;;;;;;0.05;0.00;;;19.60;99.90;;;;;;5030509;28;20463;-64
2023/08/03 11:15:15;;;;;;;0.08;0.08;;;19.50;99.90;;;;;;5031557;28;20040;-65
2023/08/03 11:17:43;;;;;;;0.22;0.10;;;19.90;99.90;;;;;;5031353;28;20022;-65
2023/08/03 11:20:12;;;;;;;0.43;0.10;;;19.80;99.90;;;;;;5031081;28;20017;-64
2023/08/03 11:22:37;;;;;;;3.38;0.25;;;19.90;99.90;;;;;;5030538;28;20080;-63
2023/08/03 11:25:06;;;;;;;0.68;0.28;;;19.80;99.90;;;;;;5031249;28;20501;-63
2023/08/03 11:27:32;;;;;;;3.92;0.25;;;19.90;99.90;;;;;;5014018;28;20021;-64
2023/08/03 11:29:59;;;;;;;0.20;0.10;;;20.00;99.90;;;;;;5013375;28;20091;-64
2023/08/03 11:32:30;;;;;;;6.40;0.38;;;20.10;99.90;;;;;;5012683;28;20029;-64
2023/08/03 11:35:08;;;;;;;1.60;0.30;;;20.20;99.90;;;;;;5013548;28;20040;-65
2023/08/03 11:37:36;;;;;;;0.25;0.13;;;20.30;99.90;;;;;;5030357;28;20030;-65
2023/08/03 11:40:05;;;;;;;1.33;0.20;;;20.50;99.90;;;;;;5031231;28;20036;-65
2023/08/03 11:42:34;;;;;;;0.10;0.03;;;20.30;99.90;;;;;;5012994;28;20073;-64
2023/08/03 11:44:59;;;;;;;0.20;0.10;;;20.00;99.90;;;;;;5013500;28;20131;-64
2023/08/03 11:47:39;;;;;;;2.67;0.20;;;20.20;99.90;;;;;;4996598;28;20164;-64
2023/08/03 11:50:05;;;;;;;0.25;0.13;;;20.20;99.90;;;;;;5031065;28;20032;-64
2023/08/03 11:52:31;;;;;;;2.38;0.20;;;20.50;99.90;;;;;;5030069;28;20120;-64
2023/08/03 11:54:57;;;;;;;0.70;0.15;;;20.70;99.90;;;;;;5030760;28;20104;-64
2023/08/03 12:00:11;;;;;;;5.22;0.13;;;21.20;99.90;;;;;;5015415;28;20120;-64
2023/08/03 12:02:45;;;;;;;1.15;0.10;;;20.90;99.90;;;;;;5030502;28;20037;-64
2023/08/03 12:05:12;;;;;;;0.00;0.00;;;20.60;99.90;;;;;;5013633;28;20033;-63
2023/08/03 12:07:39;;;;;;;1.45;0.15;;;20.40;99.90;;;;;;5030216;28;20037;-63
2023/08/03 12:10:14;;;;;;;2.08;0.52;;;20.60;99.90;;;;;;5030952;28;20029;-64
2023/08/03 12:12:42;;;;;;;2.17;0.25;;;20.50;99.90;;;;;;5009839;28;20390;-63
2023/08/03 12:15:10;;;;;;;1.45;0.10;;;20.60;99.90;;;;;;4993333;28;20558;-63
2023/08/03 12:17:37;;;;;;;2.03;0.10;;;20.60;99.90;;;;;;4993341;28;20118;-63
2023/08/03 12:20:03;;;;;;;0.17;0.10;;;20.40;99.90;;;;;;4993804;28;20652;-64
2023/08/03 12:22:29;;;;;;;0.32;0.15;;;20.50;99.90;;;;;;4992325;28;20091;-64
2023/08/03 12:24:54;;;;;;;0.08;0.08;;;20.60;99.90;;;;;;5010563;28;20026;-64
2023/08/03 12:27:20;;;;;;;2.45;0.43;;;20.60;99.90;;;;;;5010695;28;20126;-64
2023/08/03 12:29:46;;;;;;;2.50;0.22;;;20.40;99.90;;;;;;5017029;28;20392;-64
2023/08/03 12:32:12;;;;;;;0.05;0.05;;;20.50;99.90;;;;;;5012327;28;20036;-65
2023/08/03 12:34:37;;;;;;;0.63;0.15;;;20.60;99.90;;;;;;5029595;28;20083;-64
2023/08/03 12:37:03;;;;;;;0.68;0.20;;;20.70;99.90;;;;;;5012355;28;20033;-65
2023/08/03 12:39:29;;;;;;;0.77;0.17;;;21.10;99.90;;;;;;5030007;28;20167;-64
2023/08/03 12:41:55;;;;;;;0.10;0.10;;;21.40;99.90;;;;;;5030171;28;20498;-64
2023/08/03 12:44:21;;;;;;;0.05;0.05;;;21.60;99.90;;;;;;5029676;28;20041;-63
2023/08/03 12:46:46;;;;;;;1.45;0.10;;;21.60;99.90;;;;;;4995959;28;20037;-63
2023/08/03 12:49:12;;;;;;;0.10;0.10;;;21.70;99.90;;;;;;5012353;28;20163;-64
2023/08/03 12:51:38;;;;;;;2.08;0.60;;;21.40;99.90;;;;;;5016203;28;20033;-64